Time;durP1;ratioP1;P1;durP2;ratioP2;P2;SDS_P1;SDS_P2;PMS_P1;PMS_P2;Temp;Humidity;BMP_temperature;BMP_pressure;BME280_temperature;BME280_humidity;BME280_pressure;Samples;Min_cycle;Max_cycle;Signal;HPM_P1;HPM_P2
2022/11/16 00:00:14;;;;;;;7.50;7.00;;;;;;;15.83;74.83;99990.50;5037221;28;20057;-79
2022/11/16 00:02:41;;;;;;;11.25;8.18;;;;;;;15.77;74.65;99992.63;5038603;28;20124;-78
2022/11/16 00:05:08;;;;;;;11.50;7.22;;;;;;;15.81;74.73;99988.00;5036591;28;20052;-80
2022/11/16 00:07:35;;;;;;;8.07;7.28;;;;;;;15.79;75.26;99990.31;5033562;28;20470;-80
2022/11/16 00:10:02;;;;;;;7.88;7.05;;;;;;;15.80;75.17;99991.97;5034605;28;20136;-80
2022/11/16 00:12:29;;;;;;;9.05;7.63;;;;;;;15.81;75.38;99999.25;5036697;28;20155;-79
2022/11/16 00:14:56;;;;;;;8.48;7.68;;;;;;;15.82;75.01;99989.66;5033768;28;20041;-79
2022/11/16 00:17:23;;;;;;;8.80;7.90;;;;;;;15.83;75.17;99991.31;5034135;28;20049;-79
2022/11/16 00:19:49;;;;;;;9.55;7.90;;;;;;;15.85;75.57;99994.63;5038085;28;20067;-79
2022/11/16 00:22:16;;;;;;;8.32;7.40;;;;;;;15.81;75.56;99985.19;5035607;28;20428;-79
2022/11/16 00:24:43;;;;;;;9.95;9.23;;;;;;;15.86;75.57;99979.41;5031628;28;20057;-79
2022/11/16 00:27:10;;;;;;;8.02;7.38;;;;;;;15.79;75.47;99973.41;5033157;28;20088;-74
2022/11/16 00:29:37;;;;;;;8.70;7.97;;;;;;;15.82;75.26;99978.38;5033230;28;20048;-75
2022/11/16 00:32:04;;;;;;;10.85;7.20;;;;;;;15.94;75.25;99979.75;5032340;28;20049;-76
2022/11/16 00:34:31;;;;;;;7.80;7.00;;;;;;;15.93;74.44;99972.44;5036248;28;20049;-76
2022/11/16 00:36:58;;;;;;;7.80;6.97;;;;;;;15.91;74.49;99960.69;5036951;28;20045;-78
2022/11/16 00:39:24;;;;;;;7.85;7.15;;;;;;;15.88;74.42;99971.44;5036628;28;20060;-77
2022/11/16 00:41:51;;;;;;;9.05;7.05;;;;;;;15.90;74.13;99956.19;5035505;28;20061;-76
2022/11/16 00:44:18;;;;;;;9.30;7.28;;;;;;;15.92;73.85;99948.25;5034603;28;20056;-76
2022/11/16 00:46:45;;;;;;;9.70;7.63;;;;;;;15.92;73.69;99948.25;5031693;28;20048;-81
2022/11/16 00:49:12;;;;;;;7.72;7.28;;;;;;;16.02;73.28;99959.19;5024128;28;20057;-79
2022/11/16 00:51:39;;;;;;;9.40;8.70;;;;;;;16.04;73.05;99957.72;5046135;28;20570;-82
2022/11/16 00:54:07;;;;;;;9.48;8.98;;;;;;;16.05;73.25;99950.09;5041475;28;20491;-80
2022/11/16 00:56:34;;;;;;;8.82;8.05;;;;;;;16.04;72.98;99945.63;5035643;28;20332;-80
2022/11/16 00:59:03;;;;;;;8.35;7.50;;;;;;;15.97;73.15;99948.09;5040577;28;20516;-77
2022/11/16 01:01:29;;;;;;;8.20;7.60;;;;;;;15.99;72.75;99951.41;5037729;28;20516;-76
2022/11/16 01:03:56;;;;;;;9.32;8.55;;;;;;;15.98;73.35;99963.84;5049537;28;20049;-77
2022/11/16 01:06:23;;;;;;;8.23;7.47;;;;;;;15.98;73.18;99961.03;5049380;28;20044;-77
2022/11/16 01:08:50;;;;;;;8.93;8.23;;;;;;;15.96;73.11;99960.50;5038132;28;20488;-78
2022/11/16 01:14:06;;;;;;;8.45;7.85;;;;;;;15.97;73.20;99936.84;5040070;28;20049;-73
2022/11/16 01:16:33;;;;;;;8.65;7.90;;;;;;;15.96;73.46;99952.88;5042860;28;20361;-72
2022/11/16 01:19:00;;;;;;;9.10;8.10;;;;;;;15.90;73.66;99939.31;5053740;28;20128;-73
2022/11/16 01:21:28;;;;;;;7.93;7.40;;;;;;;15.96;73.59;99949.25;5042068;28;20053;-73
2022/11/16 01:23:56;;;;;;;8.15;7.50;;;;;;;15.94;74.04;99948.75;5046119;28;20499;-73
2022/11/16 01:26:23;;;;;;;16.50;7.95;;;;;;;15.92;73.91;99949.09;5038690;28;20049;-72
2022/11/16 01:28:50;;;;;;;8.65;7.93;;;;;;;15.95;74.35;99950.41;5050276;28;20060;-78
2022/11/16 01:31:17;;;;;;;9.20;8.45;;;;;;;15.93;74.27;99942.31;5039292;28;20057;-72
2022/11/16 01:33:44;;;;;;;11.57;8.18;;;;;;;15.96;74.75;99933.16;5041186;28;20052;-72
2022/11/16 01:36:13;;;;;;;9.35;8.32;;;;;;;15.96;74.57;99943.63;5047088;28;20060;-71
2022/11/16 01:38:45;;;;;;;8.43;7.63;;;;;;;15.93;74.73;99938.63;5057592;28;20071;-71
2022/11/16 01:41:14;;;;;;;8.45;7.70;;;;;;;15.88;74.81;99925.56;5050068;28;20060;-71
2022/11/16 01:43:55;;;;;;;13.27;8.48;;;;;;;15.84;74.58;99933.03;5046664;28;20057;-70
2022/11/16 01:46:24;;;;;;;12.20;9.77;;;;;;;15.92;74.86;99925.72;5044877;28;20049;-72
2022/11/16 01:48:59;;;;;;;8.40;7.40;;;;;;;15.90;74.25;99922.41;5047891;28;20645;-68
2022/11/16 01:51:26;;;;;;;8.45;7.85;;;;;;;15.83;74.09;99917.31;5040498;28;20059;-68
2022/11/16 01:53:54;;;;;;;8.68;7.97;;;;;;;15.94;74.07;99917.78;5045798;28;20045;-76
2022/11/16 01:56:23;;;;;;;12.57;11.68;;;;;;;15.98;73.99;99904.69;5052435;28;20124;-73
2022/11/16 01:58:51;;;;;;;8.20;7.50;;;;;;;15.96;73.88;99905.00;5047763;28;20403;-72
2022/11/16 02:01:18;;;;;;;9.65;7.88;;;;;;;15.85;74.04;99890.44;5041435;28;20412;-73
2022/11/16 02:03:45;;;;;;;8.30;7.60;;;;;;;15.98;73.91;99907.50;5039153;28;21743;-74
2022/11/16 02:06:15;;;;;;;11.70;8.32;;;;;;;15.96;74.35;99896.56;5037543;28;20425;-74
2022/11/16 02:12:07;;;;;;;10.90;7.53;;;;;;;15.86;74.66;99892.13;5043572;28;20476;-75
2022/11/16 02:14:37;;;;;;;9.13;8.13;;;;;;;15.87;74.58;99879.69;5047965;28;20049;-73
2022/11/16 02:17:16;;;;;;;9.57;8.60;;;;;;;15.79;75.12;99880.50;5043365;28;20087;-76
2022/11/16 02:20:13;;;;;;;8.35;7.70;;;;;;;15.67;75.20;99879.53;5043193;28;20056;-76
2022/11/16 02:23:08;;;;;;;11.13;7.70;;;;;;;15.71;75.31;99878.53;5047813;28;20467;-73
2022/11/16 02:25:50;;;;;;;11.32;7.78;;;;;;;15.71;75.50;99889.78;5041571;28;20144;-74
2022/11/16 02:28:42;;;;;;;10.90;9.27;;;;;;;15.66;75.50;99889.97;5043709;28;20044;-76
2022/11/16 02:31:15;;;;;;;10.15;8.40;;;;;;;15.60;75.22;99863.94;5046030;28;20078;-78
2022/11/16 02:33:48;;;;;;;9.30;8.05;;;;;;;15.71;75.41;99881.34;5044454;28;20045;-77
2022/11/16 02:36:19;;;;;;;9.93;8.15;;;;;;;15.71;75.25;99872.91;5041487;28;20049;-78
2022/11/16 02:38:55;;;;;;;9.32;8.50;;;;;;;15.69;75.11;99889.31;5040532;28;20408;-78
2022/11/16 02:41:26;;;;;;;8.73;8.23;;;;;;;15.70;75.42;99902.22;5037945;28;20056;-78
2022/11/16 02:44:21;;;;;;;8.65;7.90;;;;;;;15.60;75.35;99886.44;5052331;28;20045;-79
2022/11/16 02:46:55;;;;;;;9.85;8.38;;;;;;;15.65;75.23;99882.63;5037472;28;20045;-76
2022/11/16 02:49:24;;;;;;;12.68;8.18;;;;;;;15.52;75.15;99861.09;5045775;28;20057;-76
2022/11/16 02:51:52;;;;;;;8.50;7.78;;;;;;;15.65;75.36;99875.00;5039919;28;20051;-79
2022/11/16 02:54:22;;;;;;;9.02;8.05;;;;;;;15.63;74.75;99880.16;5043164;28;20057;-78
2022/11/16 02:57:24;;;;;;;11.40;7.95;;;;;;;15.50;74.95;99888.78;5036951;28;20041;-78
2022/11/16 02:59:55;;;;;;;11.15;8.35;;;;;;;15.55;75.63;99883.78;5050098;28;20057;-78
2022/11/16 03:02:29;;;;;;;22.70;9.10;;;;;;;15.53;75.36;99888.13;5044136;28;20432;-82
2022/11/16 03:05:32;;;;;;;11.82;8.07;;;;;;;15.44;75.86;99895.72;5049086;28;20056;-75
2022/11/16 03:08:26;;;;;;;9.25;8.23;;;;;;;15.45;76.06;99886.09;5030709;28;20049;-72
2022/11/16 03:13:48;;;;;;;11.88;9.32;;;;;;;15.55;76.08;99885.78;5048010;28;20088;-72
2022/11/16 03:16:30;;;;;;;8.85;8.02;;;;;;;15.55;76.35;99878.16;5041029;28;20060;-72
2022/11/16 03:19:01;;;;;;;8.55;7.85;;;;;;;15.53;76.14;99874.03;5040837;28;20788;-77
2022/11/16 03:21:57;;;;;;;9.35;8.40;;;;;;;15.47;75.80;99869.72;5042170;28;20061;-73
2022/11/16 03:24:24;;;;;;;13.45;8.38;;;;;;;15.44;76.52;99873.19;5040167;28;20049;-75
2022/11/16 03:27:05;;;;;;;8.98;8.07;;;;;;;15.47;76.11;99875.34;5045941;28;20052;-74
2022/11/16 03:29:45;;;;;;;8.70;7.90;;;;;;;15.43;76.08;99847.06;5046689;28;20416;-73
2022/11/16 03:32:34;;;;;;;11.43;9.10;;;;;;;15.32;76.39;99849.38;5039056;28;20393;-72
2022/11/16 03:35:18;;;;;;;8.55;7.85;;;;;;;15.31;76.53;99852.50;5036850;28;20052;-72
2022/11/16 03:37:47;;;;;;;9.75;8.85;;;;;;;15.43;76.20;99863.13;5037864;28;20049;-73
2022/11/16 03:40:17;;;;;;;8.65;7.80;;;;;;;15.45;76.09;99866.41;5044802;28;20053;-74
2022/11/16 03:42:44;;;;;;;11.63;8.13;;;;;;;15.45;76.56;99863.59;5044724;28;20053;-73
2022/11/16 03:45:12;;;;;;;8.32;7.60;;;;;;;15.45;76.25;99867.22;5037504;28;20623;-74
2022/11/16 03:47:40;;;;;;;9.38;8.50;;;;;;;15.38;76.24;99850.88;5033151;28;20041;-73
2022/11/16 03:50:08;;;;;;;8.98;8.38;;;;;;;15.44;76.63;99867.56;5041372;28;20041;-73
2022/11/16 03:52:35;;;;;;;9.30;8.45;;;;;;;15.41;76.34;99872.69;5043497;28;20499;-74
2022/11/16 03:55:03;;;;;;;13.50;9.15;;;;;;;15.45;76.67;99872.03;5038944;28;20499;-74
2022/11/16 03:57:30;;;;;;;8.43;7.38;;;;;;;15.46;76.27;99884.97;5041509;28;20053;-74
2022/11/16 03:59:57;;;;;;;8.27;7.53;;;;;;;15.48;76.24;99891.06;5046605;28;20052;-74
2022/11/16 04:02:23;;;;;;;7.78;7.18;;;;;;;15.46;76.74;99882.97;5039974;28;20522;-74
2022/11/16 04:24:23;;;;;;;10.60;9.60;;;;;;;15.07;78.61;99847.31;5039926;28;20052;-75
2022/11/16 04:29:41;;;;;;;11.98;10.80;;;;;;;14.90;79.72;99857.38;5045725;28;20403;-71
2022/11/16 04:37:51;;;;;;;12.23;11.32;;;;;;;14.60;80.75;99855.47;5042254;28;20067;-71
2022/11/16 04:40:21;;;;;;;11.45;10.75;;;;;;;14.56;81.23;99852.47;5036039;28;20053;-72
2022/11/16 04:42:51;;;;;;;;;;;;;;;14.21;81.99;99857.06;5035577;28;20334;-72
2022/11/16 04:48:05;;;;;;;13.82;10.55;;;;;;;14.39;82.15;99844.78;5037894;28;20049;-72
2022/11/16 04:50:32;;;;;;;13.45;11.75;;;;;;;14.38;82.26;99845.09;5041250;28;20499;-72
2022/11/16 04:52:59;;;;;;;12.32;11.32;;;;;;;14.45;82.56;99851.91;5032897;28;20045;-72
2022/11/16 04:55:26;;;;;;;13.23;11.20;;;;;;;14.39;82.38;99833.53;5051273;28;20049;-73
2022/11/16 04:57:53;;;;;;;12.27;11.40;;;;;;;14.47;82.77;99837.53;5047329;28;20052;-74
2022/11/16 05:00:20;;;;;;;11.52;10.73;;;;;;;14.50;83.23;99838.88;5048780;28;20049;-73
2022/11/16 05:02:47;;;;;;;13.05;11.75;;;;;;;14.52;83.06;99837.41;5032810;28;20046;-73
2022/11/16 05:05:14;;;;;;;13.00;11.82;;;;;;;14.52;83.66;99834.59;5033258;28;20060;-72
2022/11/16 05:07:41;;;;;;;12.90;11.75;;;;;;;14.46;83.93;99825.47;5032477;28;20049;-73
2022/11/16 05:10:08;;;;;;;14.25;12.30;;;;;;;14.53;84.25;99829.81;5049740;28;20045;-72
2022/11/16 05:12:35;;;;;;;14.35;12.80;;;;;;;14.50;84.33;99830.44;5032401;28;20053;-72
2022/11/16 05:15:03;;;;;;;13.55;12.30;;;;;;;14.46;84.62;99808.63;5032884;28;20053;-71
2022/11/16 05:17:30;;;;;;;14.48;13.10;;;;;;;14.51;85.16;99823.69;5033292;28;20073;-72
2022/11/16 05:22:42;;;;;;;13.30;12.00;;;;;;;14.48;85.54;99816.72;5034237;28;20488;-73
2022/11/16 05:25:10;;;;;;;12.60;11.52;;;;;;;14.49;85.45;99800.69;5033478;28;20080;-74
2022/11/16 05:27:37;;;;;;;13.35;12.40;;;;;;;14.54;85.74;99809.00;5036217;28;20049;-74
2022/11/16 05:30:05;;;;;;;13.85;12.60;;;;;;;14.57;85.55;99808.38;5039892;28;20048;-75
2022/11/16 05:32:31;;;;;;;13.45;12.15;;;;;;;14.61;85.78;99806.56;5037441;28;20431;-75
2022/11/16 05:34:58;;;;;;;13.85;12.48;;;;;;;14.59;86.10;99808.84;5037771;28;20052;-74
2022/11/16 05:37:25;;;;;;;15.70;12.88;;;;;;;14.50;86.04;99786.34;5041861;28;20049;-74
2022/11/16 05:39:53;;;;;;;14.60;13.20;;;;;;;14.57;86.58;99795.13;5037180;28;20060;-75
2022/11/16 05:42:20;;;;;;;14.07;12.98;;;;;;;14.59;87.17;99806.03;5045192;28;20052;-68
2022/11/16 05:44:47;;;;;;;14.48;13.25;;;;;;;14.58;87.01;99804.38;5047883;28;20041;-68
2022/11/16 05:47:14;;;;;;;14.60;13.15;;;;;;;14.59;86.93;99806.03;5043485;28;20045;-68
2022/11/16 05:49:40;;;;;;;16.77;13.48;;;;;;;14.60;87.21;99793.66;5040864;28;20057;-67
2022/11/16 05:52:07;;;;;;;14.73;13.00;;;;;;;14.60;87.08;99802.09;5042777;28;20045;-68
2022/11/16 05:54:34;;;;;;;14.73;13.63;;;;;;;14.61;87.35;99803.75;5052675;28;20052;-68
2022/11/16 05:57:01;;;;;;;13.88;12.95;;;;;;;14.55;88.10;99793.78;5038027;28;20060;-67
2022/11/16 05:59:28;;;;;;;15.23;13.80;;;;;;;14.50;88.36;99806.03;5050225;28;20052;-68
2022/11/16 06:01:56;;;;;;;13.43;12.57;;;;;;;14.62;88.30;99811.84;5038580;28;20052;-69
2022/11/16 06:04:23;;;;;;;14.60;13.40;;;;;;;14.53;88.54;99802.56;5051783;28;20076;-68
2022/11/16 06:06:50;;;;;;;13.38;12.27;;;;;;;14.55;88.49;99807.84;5050219;28;20123;-68
2022/11/16 06:09:17;;;;;;;13.50;12.40;;;;;;;14.52;88.66;99811.31;5036901;28;20037;-68
2022/11/16 06:11:44;;;;;;;15.15;13.93;;;;;;;14.54;89.02;99811.81;5048226;28;20459;-69
2022/11/16 06:14:11;;;;;;;14.38;13.27;;;;;;;14.54;88.97;99809.00;5043977;28;20053;-68
2022/11/16 06:16:38;;;;;;;13.13;12.23;;;;;;;14.57;89.10;99819.59;5047651;28;20056;-69
2022/11/16 06:19:05;;;;;;;13.50;12.63;;;;;;;14.55;89.29;99805.84;5044283;28;20052;-70
2022/11/16 06:21:31;;;;;;;14.20;12.82;;;;;;;14.45;89.16;99792.91;5040931;28;20448;-69
2022/11/16 06:23:58;;;;;;;14.10;12.73;;;;;;;14.32;89.71;99762.94;5045042;28;20049;-70
2022/11/16 06:26:25;;;;;;;14.85;13.68;;;;;;;14.40;89.83;99786.63;5037601;28;20492;-69
2022/11/16 06:28:53;;;;;;;13.90;13.05;;;;;;;14.30;90.22;99779.31;5045242;28;20048;-69
2022/11/16 06:31:20;;;;;;;13.40;12.40;;;;;;;14.33;90.36;99772.22;5043723;28;20049;-69
2022/11/16 06:33:47;;;;;;;14.45;13.05;;;;;;;14.32;90.14;99770.53;5047267;28;20515;-69
2022/11/16 06:36:14;;;;;;;15.82;14.40;;;;;;;14.25;90.66;99756.16;5043913;28;20046;-69
2022/11/16 06:38:41;;;;;;;14.65;13.40;;;;;;;14.19;90.71;99756.31;5036547;28;20063;-70
2022/11/16 06:41:08;;;;;;;15.35;13.90;;;;;;;14.21;90.67;99753.16;5037208;28;20132;-71
2022/11/16 06:43:34;;;;;;;15.85;14.27;;;;;;;14.15;90.93;99740.41;5050499;28;20420;-70
2022/11/16 06:46:02;;;;;;;14.90;13.60;;;;;;;14.26;91.02;99750.22;5049514;28;20047;-70
2022/11/16 06:48:29;;;;;;;15.50;14.00;;;;;;;14.20;91.23;99740.28;5037837;28;20045;-71
2022/11/16 06:50:56;;;;;;;15.18;13.80;;;;;;;14.21;91.19;99741.94;5043755;28;20419;-69
2022/11/16 06:53:23;;;;;;;14.98;13.43;;;;;;;14.23;91.42;99754.50;5034516;28;20392;-68
2022/11/16 06:55:59;;;;;;;13.82;13.00;;;;;;;14.20;91.73;99731.84;5036625;28;20140;-66
2022/11/16 06:58:29;;;;;;;16.52;14.98;;;;;;;14.25;92.13;99714.03;5043589;28;20049;-69
2022/11/16 07:00:56;;;;;;;15.13;14.10;;;;;;;14.26;92.44;99744.59;5045826;28;20041;-69
2022/11/16 07:03:23;;;;;;;15.00;13.23;;;;;;;14.31;92.31;99749.25;5045871;28;20045;-69
2022/11/16 07:05:50;;;;;;;14.60;13.32;;;;;;;14.32;92.41;99746.09;5040288;28;20044;-67
2022/11/16 07:08:17;;;;;;;13.75;12.77;;;;;;;14.40;92.52;99750.94;5033391;28;20045;-68
2022/11/16 07:10:43;;;;;;;16.80;15.48;;;;;;;14.46;92.70;99752.44;5034872;28;20514;-65
2022/11/16 07:13:10;;;;;;;14.20;13.27;;;;;;;14.46;92.72;99758.06;5040262;28;20063;-66
2022/11/16 07:15:37;;;;;;;14.23;13.13;;;;;;;14.51;92.54;99756.28;5042976;28;20065;-67
2022/11/16 07:18:07;;;;;;;16.65;15.40;;;;;;;14.57;92.55;99763.41;5037487;28;20049;-67
2022/11/16 07:20:36;;;;;;;14.00;13.25;;;;;;;14.60;93.01;99769.19;5041836;28;20059;-68
2022/11/16 07:23:03;;;;;;;14.47;13.27;;;;;;;14.68;93.12;99773.19;5049545;28;20451;-67
2022/11/16 07:25:34;;;;;;;17.50;13.52;;;;;;;14.74;93.09;99780.31;5047510;28;20387;-65
2022/11/16 07:28:01;;;;;;;15.02;13.80;;;;;;;14.81;93.31;99775.03;5037213;28;20044;-67
2022/11/16 07:30:28;;;;;;;18.90;17.90;;;;;;;14.71;92.98;99766.91;5039583;28;20052;-70
2022/11/16 07:32:58;;;;;;;13.43;12.50;;;;;;;14.64;92.83;99769.38;5038603;28;20061;-68
2022/11/16 07:35:25;;;;;;;14.70;13.25;;;;;;;14.61;92.77;99809.34;5043915;28;20519;-68
2022/11/16 07:37:52;;;;;;;13.48;12.35;;;;;;;14.58;92.82;99810.84;5039785;28;20052;-67
2022/11/16 07:40:19;;;;;;;13.57;12.68;;;;;;;14.49;93.09;99795.06;5040038;28;20045;-67
2022/11/16 07:42:46;;;;;;;14.70;12.85;;;;;;;14.55;93.34;99811.47;5044969;28;20049;-68
2022/11/16 07:45:13;;;;;;;18.38;17.20;;;;;;;14.46;93.33;99805.81;5039238;28;20045;-68
2022/11/16 07:47:40;;;;;;;18.73;17.23;;;;;;;14.45;93.08;99818.19;5046627;28;20143;-66
2022/11/16 07:50:09;;;;;;;14.18;13.20;;;;;;;14.33;92.98;99795.50;5035479;28;20057;-67
2022/11/16 07:52:36;;;;;;;14.02;13.10;;;;;;;14.30;93.16;99798.97;5047323;28;20057;-66
2022/11/16 07:55:04;;;;;;;19.70;18.40;;;;;;;14.20;92.94;99788.84;5034997;28;20049;-66
2022/11/16 07:57:31;;;;;;;13.95;13.05;;;;;;;14.22;93.27;99799.75;5035023;28;20063;-65
2022/11/16 07:59:58;;;;;;;14.57;13.57;;;;;;;14.20;93.31;99782.41;5036612;28;20492;-67
2022/11/16 08:02:25;;;;;;;14.43;12.90;;;;;;;14.20;93.07;99785.22;5042784;28;20064;-66
2022/11/16 08:04:52;;;;;;;14.82;13.52;;;;;;;14.19;92.97;99792.00;5035242;28;20048;-67
2022/11/16 08:07:18;;;;;;;14.52;13.63;;;;;;;14.05;93.15;99768.78;5042714;28;20045;-67
2022/11/16 08:09:45;;;;;;;15.07;14.02;;;;;;;14.16;93.26;99787.84;5032550;28;20037;-68
2022/11/16 08:12:12;;;;;;;15.23;14.13;;;;;;;14.21;93.16;99792.47;5034678;28;20049;-66
2022/11/16 08:14:39;;;;;;;16.35;15.05;;;;;;;14.20;93.46;99791.66;5032302;28;20067;-66
2022/11/16 08:17:07;;;;;;;14.77;14.07;;;;;;;14.23;93.20;99787.38;5043854;28;20053;-67
2022/11/16 08:19:35;;;;;;;15.05;14.00;;;;;;;14.23;93.58;99781.75;5046072;28;20045;-67
2022/11/16 08:22:02;;;;;;;14.73;13.35;;;;;;;14.25;93.44;99779.44;5038093;28;20057;-67
2022/11/16 08:24:29;;;;;;;14.73;13.50;;;;;;;14.29;93.73;99790.84;5049848;28;20052;-67
2022/11/16 08:26:57;;;;;;;14.63;13.38;;;;;;;14.33;93.46;99798.31;5044909;28;20054;-68
2022/11/16 08:29:25;;;;;;;14.13;12.93;;;;;;;14.33;93.58;99794.69;5042091;28;20404;-70
2022/11/16 08:31:52;;;;;;;17.25;15.85;;;;;;;14.37;93.68;99809.75;5047074;28;20053;-68
2022/11/16 08:34:20;;;;;;;13.52;12.50;;;;;;;14.41;93.81;99805.94;5041480;28;20045;-67
2022/11/16 08:36:47;;;;;;;13.48;12.77;;;;;;;14.38;93.56;99809.41;5037113;28;20064;-67
2022/11/16 08:39:14;;;;;;;19.02;17.73;;;;;;;14.42;93.70;99807.59;5037891;28;20052;-68
2022/11/16 08:41:41;;;;;;;14.23;13.23;;;;;;;14.33;93.84;99801.13;5035286;28;20046;-67
2022/11/16 08:44:08;;;;;;;13.43;12.65;;;;;;;14.48;93.54;99824.31;5036807;28;20080;-70
2022/11/16 08:46:35;;;;;;;15.02;13.93;;;;;;;14.38;93.36;99820.63;5042851;28;20041;-70
2022/11/16 08:49:02;;;;;;;15.10;13.88;;;;;;;14.39;93.32;99830.75;5045826;28;20121;-65
2022/11/16 08:51:29;;;;;;;18.58;17.38;;;;;;;14.38;93.39;99825.44;5037437;28;20053;-67
2022/11/16 08:53:57;;;;;;;13.68;12.63;;;;;;;14.33;93.29;99820.78;5040517;28;20044;-66
2022/11/16 08:56:28;;;;;;;17.98;16.45;;;;;;;14.25;93.60;99827.19;5047175;28;20053;-66
2022/11/16 08:58:55;;;;;;;14.38;13.20;;;;;;;14.27;93.47;99826.88;5042729;28;20038;-66
2022/11/16 09:01:26;;;;;;;16.55;15.13;;;;;;;14.29;93.62;99836.63;5046117;28;20064;-66
2022/11/16 09:03:54;;;;;;;15.27;14.05;;;;;;;14.32;93.86;99849.19;5037725;28;20053;-66
2022/11/16 09:06:24;;;;;;;14.90;13.75;;;;;;;14.32;93.77;99835.97;5033294;28;20072;-66
2022/11/16 09:08:51;;;;;;;16.75;14.40;;;;;;;14.37;93.99;99830.22;5041611;28;20055;-66
2022/11/16 09:11:20;;;;;;;14.95;13.90;;;;;;;14.50;94.24;99836.06;5045098;28;20062;-64
2022/11/16 09:13:49;;;;;;;14.13;13.23;;;;;;;14.54;94.75;99831.50;5043493;28;20077;-64
2022/11/16 09:16:19;;;;;;;20.00;18.63;;;;;;;14.54;94.88;99814.63;5044815;28;20045;-65
2022/11/16 09:18:49;;;;;;;15.65;14.45;;;;;;;14.63;94.68;99837.94;5035325;28;20121;-65
2022/11/16 09:21:21;;;;;;;15.13;14.00;;;;;;;14.64;94.51;99834.00;5034309;28;20057;-65
2022/11/16 09:23:49;;;;;;;15.20;13.95;;;;;;;14.68;94.43;99840.63;5047422;28;20048;-64
2022/11/16 09:26:20;;;;;;;15.35;14.15;;;;;;;14.74;94.25;99841.31;5041081;28;20060;-65
2022/11/16 09:28:59;;;;;;;15.60;14.13;;;;;;;14.74;94.20;99846.94;5039756;28;20775;-66
2022/11/16 09:31:28;;;;;;;15.23;13.82;;;;;;;14.72;94.41;99833.19;5040979;28;20458;-66
2022/11/16 09:33:57;;;;;;;15.45;14.02;;;;;;;14.72;94.55;99844.44;5041407;28;20503;-66
2022/11/16 09:36:27;;;;;;;15.35;14.27;;;;;;;14.56;94.65;99837.59;5047827;28;20103;-66
2022/11/16 09:38:55;;;;;;;15.75;15.02;;;;;;;14.68;94.82;99847.06;5039959;28;20513;-66
2022/11/16 09:41:54;;;;;;;16.25;15.25;;;;;;;14.71;94.92;99851.22;5041796;28;20056;-65
2022/11/16 09:44:30;;;;;;;15.45;14.65;;;;;;;14.80;94.70;99856.84;5043404;28;20060;-65
2022/11/16 09:46:59;;;;;;;16.15;14.85;;;;;;;14.83;95.20;99851.41;5039865;28;20049;-65
2022/11/16 09:49:38;;;;;;;15.60;14.80;;;;;;;14.84;95.26;99852.25;5046138;28;20116;-66
2022/11/16 09:52:13;;;;;;;15.33;14.57;;;;;;;14.81;94.83;99848.09;5042299;28;20041;-66
2022/11/16 09:54:43;;;;;;;14.75;14.05;;;;;;;14.76;94.82;99828.56;5041886;28;20045;-65
2022/11/16 09:57:16;;;;;;;14.75;14.05;;;;;;;14.78;94.82;99831.06;5045319;28;20059;-65
2022/11/16 09:59:47;;;;;;;18.63;17.67;;;;;;;14.75;95.04;99812.88;5053610;28;20411;-66
2022/11/16 10:02:27;;;;;;;15.52;14.45;;;;;;;14.71;95.03;99819.47;5041743;28;20423;-66
2022/11/16 10:05:02;;;;;;;15.35;14.55;;;;;;;14.73;95.30;99815.16;5045280;28;20048;-65
2022/11/16 10:07:40;;;;;;;13.65;13.05;;;;;;;14.79;94.95;99821.47;5046215;28;20057;-66
2022/11/16 10:10:26;;;;;;;19.58;18.35;;;;;;;14.80;94.90;99823.97;5046670;28;20056;-65
2022/11/16 10:13:21;;;;;;;14.43;13.60;;;;;;;14.83;95.24;99825.28;5044351;28;20053;-65
2022/11/16 10:16:09;;;;;;;14.98;14.02;;;;;;;14.87;95.24;99835.56;5045423;28;20415;-65
2022/11/16 10:18:45;;;;;;;14.00;13.20;;;;;;;14.98;95.23;99838.91;5046827;28;20060;-66
2022/11/16 10:21:36;;;;;;;14.00;13.05;;;;;;;14.98;95.39;99818.38;5038909;28;20499;-65
2022/11/16 10:24:21;;;;;;;14.35;13.35;;;;;;;15.11;95.65;99818.25;5042471;28;20121;-66
2022/11/16 10:27:29;;;;;;;14.90;13.70;;;;;;;15.09;95.58;99811.28;5048609;28;20052;-65
2022/11/16 10:30:08;;;;;;;14.40;13.60;;;;;;;15.19;95.47;99827.84;5044471;28;20041;-66
2022/11/16 10:33:08;;;;;;;22.85;21.50;;;;;;;15.22;95.69;99824.38;5045893;28;20067;-65
2022/11/16 10:35:53;;;;;;;14.27;13.57;;;;;;;15.21;95.69;99811.44;5048835;28;20134;-65
2022/11/16 10:38:27;;;;;;;13.90;13.07;;;;;;;15.35;95.98;99823.41;5040172;28;20056;-66
2022/11/16 10:41:13;;;;;;;14.38;13.68;;;;;;;15.37;95.99;99818.25;5046789;28;20533;-65
2022/11/16 10:43:42;;;;;;;13.90;13.10;;;;;;;15.43;96.21;99812.47;5048625;28;20396;-65
2022/11/16 10:46:21;;;;;;;14.43;13.50;;;;;;;15.50;95.89;99829.69;5046693;28;20144;-65
2022/11/16 10:49:10;;;;;;;13.40;12.80;;;;;;;15.40;96.37;99814.78;5039498;28;20045;-66
2022/11/16 10:51:37;;;;;;;13.98;13.25;;;;;;;15.44;96.51;99812.13;5034671;28;20045;-65
2022/11/16 10:54:15;;;;;;;21.80;14.25;;;;;;;15.47;96.51;99816.28;5038414;28;20041;-65
2022/11/16 10:56:54;;;;;;;14.15;13.25;;;;;;;15.51;96.23;99820.88;5081979;28;20537;-66
2022/11/16 10:59:48;;;;;;;14.38;13.57;;;;;;;15.48;96.39;99798.22;5044307;28;20049;-66
2022/11/16 11:02:21;;;;;;;14.77;13.98;;;;;;;15.55;96.55;99818.25;5039302;28;20081;-66
2022/11/16 11:05:07;;;;;;;14.45;13.43;;;;;;;15.52;95.89;99807.63;5041022;28;20041;-66
2022/11/16 11:07:38;;;;;;;14.90;13.77;;;;;;;15.58;96.04;99803.50;5034128;28;20053;-66
2022/11/16 11:10:30;;;;;;;14.93;13.82;;;;;;;15.55;96.12;99809.78;5037280;28;20131;-66
2022/11/16 11:13:19;;;;;;;21.00;19.70;;;;;;;15.53;96.14;99807.31;5038223;28;20046;-66
2022/11/16 11:15:47;;;;;;;14.30;13.50;;;;;;;15.59;96.57;99808.00;5047751;28;20099;-65
2022/11/16 11:18:14;;;;;;;14.38;13.68;;;;;;;15.63;96.30;99789.28;5033412;28;20053;-65
2022/11/16 11:20:44;;;;;;;17.52;16.63;;;;;;;15.71;96.53;99804.53;5036126;28;20057;-66
2022/11/16 11:23:18;;;;;;;15.75;14.65;;;;;;;15.62;96.15;99787.59;5041499;28;20049;-65
2022/11/16 11:25:53;;;;;;;16.25;15.32;;;;;;;15.66;96.27;99788.66;5035605;28;20892;-65
2022/11/16 11:28:31;;;;;;;16.60;15.27;;;;;;;15.63;96.17;99783.66;5033931;28;20072;-66
2022/11/16 11:31:24;;;;;;;18.77;15.20;;;;;;;15.68;96.34;99791.94;5035880;28;20059;-64
2022/11/16 11:33:58;;;;;;;17.85;16.30;;;;;;;15.70;96.55;99786.81;5048409;28;20452;-63
2022/11/16 11:36:37;;;;;;;17.02;15.80;;;;;;;15.64;96.26;99776.84;5037777;28;20049;-64
2022/11/16 11:39:27;;;;;;;16.13;15.30;;;;;;;15.62;96.42;99782.81;5040145;28;20419;-64
2022/11/16 11:42:12;;;;;;;16.90;15.30;;;;;;;15.66;96.33;99783.03;5045010;28;20423;-65
2022/11/16 11:44:43;;;;;;;19.00;17.45;;;;;;;15.67;96.38;99773.41;5042791;28;20071;-64
2022/11/16 11:47:25;;;;;;;15.70;14.77;;;;;;;15.58;96.64;99759.31;5032991;28;20063;-64
2022/11/16 11:50:37;;;;;;;15.05;14.15;;;;;;;15.61;96.80;99774.69;5044922;28;20060;-64
2022/11/16 11:53:32;;;;;;;15.13;13.95;;;;;;;15.60;96.69;99744.91;5037397;28;20057;-64
2022/11/16 11:56:00;;;;;;;15.20;14.10;;;;;;;15.61;96.57;99746.56;5040043;28;20063;-65
2022/11/16 11:58:36;;;;;;;14.77;13.63;;;;;;;15.66;96.43;99743.63;5040586;28;20056;-65
2022/11/16 12:01:17;;;;;;;16.23;14.93;;;;;;;15.71;97.03;99746.25;5033999;28;20048;-64
2022/11/16 12:04:10;;;;;;;15.90;14.80;;;;;;;15.49;96.70;99701.41;5041537;28;20136;-65
2022/11/16 12:06:37;;;;;;;16.63;15.02;;;;;;;15.68;97.04;99730.00;5040187;28;20053;-65
2022/11/16 12:09:27;;;;;;;18.55;15.75;;;;;;;15.63;96.98;99708.47;5037468;28;20079;-65
2022/11/16 12:12:19;;;;;;;18.33;17.27;;;;;;;15.64;97.37;99712.13;5037949;28;20049;-66
2022/11/16 12:15:01;;;;;;;16.13;15.15;;;;;;;15.65;97.03;99708.13;5038287;28;20060;-65
2022/11/16 12:18:12;;;;;;;21.92;20.15;;;;;;;15.67;97.19;99727.56;5039854;28;20419;-64
2022/11/16 12:20:54;;;;;;;16.98;15.57;;;;;;;15.74;97.53;99723.06;5029811;28;20053;-64
2022/11/16 12:23:45;;;;;;;20.10;15.75;;;;;;;15.76;97.38;99715.09;5039134;28;20057;-65
2022/11/16 12:26:27;;;;;;;17.55;16.02;;;;;;;15.75;97.06;99701.34;5037166;28;20070;-64